createdAt,value
2023-05-17T00:04:59.582Z,77.14
2023-05-17T00:10:02.524Z,77.60
2023-05-17T00:15:06.426Z,77.88
2023-05-17T00:20:09.874Z,78.00
2023-05-17T00:25:12.810Z,78.13
2023-05-17T00:30:15.787Z,78.40
2023-05-17T00:35:18.756Z,78.43
2023-05-17T00:40:21.943Z,78.39
2023-05-17T00:45:24.809Z,78.41
2023-05-17T00:50:28.776Z,78.03
2023-05-17T00:55:32.181Z,78.00
2023-05-17T01:00:35.078Z,78.32
2023-05-17T01:05:39.098Z,78.02
2023-05-17T01:11:18.908Z,78.26
2023-05-17T01:16:30.578Z,78.34
2023-05-17T01:22:03.799Z,78.66
2023-05-17T01:27:07.652Z,78.87
2023-05-17T01:32:11.494Z,78.51
2023-05-17T01:37:14.654Z,78.62
2023-05-17T01:42:22.880Z,78.99
2023-05-17T01:48:13.530Z,78.96
2023-05-17T01:53:55.719Z,79.10
2023-05-17T01:59:00.229Z,79.02
2023-05-17T02:04:03.746Z,78.69
2023-05-17T02:09:06.873Z,79.10
2023-05-17T02:14:09.862Z,79.31
2023-05-17T02:19:13.552Z,79.19
2023-05-17T02:24:16.610Z,78.96
2023-05-17T02:29:19.652Z,79.00
2023-05-17T02:34:22.621Z,79.34
2023-05-17T02:39:25.685Z,79.73
2023-05-17T02:44:28.715Z,79.90
2023-05-17T02:49:31.765Z,79.99
2023-05-17T02:54:34.959Z,79.79
2023-05-17T02:59:38.169Z,79.91
2023-05-17T03:04:41.320Z,79.87
2023-05-17T03:09:44.367Z,80.29
2023-05-17T03:14:47.423Z,80.08
2023-05-17T03:19:50.466Z,80.30
2023-05-17T03:24:53.755Z,80.13
2023-05-17T03:29:56.809Z,80.25
2023-05-17T03:34:59.798Z,80.24
2023-05-17T03:40:03.171Z,80.19
2023-05-17T03:45:06.830Z,80.16
2023-05-17T03:50:10.364Z,79.65
2023-05-17T03:55:13.370Z,80.45
2023-05-17T04:00:21.449Z,80.58
2023-05-17T04:05:24.647Z,80.64
2023-05-17T04:10:27.687Z,80.67
2023-05-17T04:15:31.146Z,80.53
2023-05-17T04:20:34.071Z,80.59
2023-05-17T04:25:39.956Z,80.80
2023-05-17T04:30:44.146Z,80.92
2023-05-17T04:35:47.162Z,81.25
2023-05-17T04:40:50.197Z,81.23
2023-05-17T04:46:02.170Z,81.27
2023-05-17T04:51:05.651Z,81.33
2023-05-17T04:56:08.543Z,81.33
2023-05-17T05:01:12.134Z,81.52
2023-05-17T05:06:16.402Z,81.61
2023-05-17T05:11:19.502Z,81.67
2023-05-17T05:16:22.499Z,81.82
2023-05-17T05:21:25.837Z,82.00
2023-05-17T05:26:28.858Z,82.24
2023-05-17T05:31:31.876Z,82.26
2023-05-17T05:36:34.934Z,82.29
2023-05-17T05:41:37.920Z,82.02
2023-05-17T05:46:41.081Z,82.27
2023-05-17T05:51:44.272Z,82.52
2023-05-17T05:56:47.301Z,82.15
2023-05-17T06:01:50.293Z,82.07
2023-05-17T06:06:54.984Z,82.16
2023-05-17T06:11:58.137Z,81.89
2023-05-17T06:17:01.127Z,82.09
2023-05-17T06:22:04.384Z,82.14
2023-05-17T06:27:07.581Z,82.20
2023-05-17T06:32:10.701Z,82.19
2023-05-17T06:37:13.692Z,82.38
2023-05-17T06:42:17.153Z,82.35
2023-05-17T06:47:20.188Z,82.36
2023-05-17T06:52:24.884Z,82.56
2023-05-17T06:57:27.991Z,82.28
2023-05-17T07:02:33.749Z,82.09
2023-05-17T07:07:37.620Z,82.11
2023-05-17T07:12:41.835Z,82.44
2023-05-17T07:17:44.888Z,82.44
2023-05-17T07:22:48.523Z,82.62
2023-05-17T07:27:54.613Z,82.61
2023-05-17T07:32:57.950Z,82.67
2023-05-17T07:38:01.008Z,82.62
2023-05-17T07:43:04.050Z,82.81
2023-05-17T07:48:07.726Z,82.81
2023-05-17T07:53:11.220Z,82.94
2023-05-17T07:58:14.187Z,83.06
2023-05-17T08:03:17.642Z,82.98
2023-05-17T08:08:21.357Z,83.10
2023-05-17T08:13:24.377Z,82.65
2023-05-17T08:18:27.434Z,82.97
2023-05-17T08:23:30.738Z,82.66
2023-05-17T08:28:33.885Z,82.40
2023-05-17T08:33:36.975Z,82.47
2023-05-17T08:38:40.039Z,82.67
2023-05-17T08:43:44.688Z,83.17
2023-05-17T08:48:52.113Z,82.63
2023-05-17T08:53:56.446Z,82.56
2023-05-17T08:59:00.329Z,82.53
2023-05-17T09:04:05.010Z,82.77
2023-05-17T09:09:08.037Z,82.70
2023-05-17T09:14:10.990Z,82.48
2023-05-17T09:19:18.035Z,82.35
2023-05-17T09:24:30.278Z,82.11
2023-05-17T09:29:33.952Z,82.25
2023-05-17T09:34:41.200Z,82.01
2023-05-17T09:39:46.928Z,81.95
2023-05-17T09:44:57.569Z,82.17
2023-05-17T09:50:04.926Z,82.43
2023-05-17T09:55:11.930Z,82.30
2023-05-17T10:00:19.393Z,82.38
2023-05-17T10:05:22.875Z,82.48
2023-05-17T10:10:26.933Z,82.31
2023-05-17T10:15:30.405Z,82.18
2023-05-17T10:20:34.566Z,82.56
2023-05-17T10:25:38.429Z,82.86
2023-05-17T10:30:41.897Z,83.01
2023-05-17T10:35:46.151Z,82.51
2023-05-17T10:40:51.829Z,82.72
2023-05-17T10:45:55.360Z,82.56
2023-05-17T10:51:07.540Z,83.01
2023-05-17T10:56:10.521Z,83.09
2023-05-17T11:01:48.674Z,82.28
2023-05-17T11:07:28.103Z,82.20
2023-05-17T11:12:42.074Z,82.20
2023-05-17T11:17:46.639Z,82.03
2023-05-17T11:23:01.591Z,81.76
2023-05-17T11:28:22.902Z,81.74
2023-05-17T11:33:44.221Z,81.03
2023-05-17T11:39:10.236Z,81.60
2023-05-17T11:44:14.160Z,81.68
2023-05-17T11:49:26.884Z,81.79
2023-05-17T11:54:40.135Z,81.74
2023-05-17T11:59:43.405Z,81.95
2023-05-17T12:04:46.899Z,81.77
2023-05-17T12:09:50.302Z,82.03
2023-05-17T12:14:53.411Z,82.11
2023-05-17T12:20:06.991Z,81.87
2023-05-17T12:25:20.560Z,81.55
2023-05-17T12:30:24.418Z,82.32
2023-05-17T12:35:27.458Z,81.36
2023-05-17T12:40:31.493Z,80.94
2023-05-17T12:45:34.648Z,80.62
2023-05-17T12:50:37.634Z,80.53
2023-05-17T12:55:41.018Z,81.17
2023-05-17T13:01:01.191Z,81.36
2023-05-17T13:06:10.332Z,81.37
2023-05-17T13:11:15.495Z,81.22
2023-05-17T13:16:28.829Z,80.94
2023-05-17T13:21:31.828Z,80.92
2023-05-17T13:26:34.813Z,80.50
2023-05-17T13:31:37.828Z,80.57
2023-05-17T13:36:41.470Z,80.73
2023-05-17T13:41:44.527Z,81.07
2023-05-17T13:46:47.521Z,80.68
2023-05-17T13:51:50.815Z,80.34
2023-05-17T13:56:55.580Z,79.73
2023-05-17T14:01:58.805Z,79.99
2023-05-17T14:07:03.692Z,79.64
2023-05-17T14:12:07.092Z,79.84
2023-05-17T14:17:10.062Z,79.79
2023-05-17T14:22:13.876Z,79.66
2023-05-17T14:27:16.945Z,79.77
2023-05-17T14:32:19.963Z,80.51
2023-05-17T14:37:22.993Z,80.83
2023-05-17T14:42:27.128Z,81.02
2023-05-17T14:47:30.150Z,80.72
2023-05-17T14:52:34.949Z,80.34
2023-05-17T14:57:38.504Z,80.34
2023-05-17T15:02:41.418Z,80.33
2023-05-17T15:07:44.682Z,80.62
2023-05-17T15:12:47.642Z,80.81
2023-05-17T15:17:50.711Z,81.04
2023-05-17T15:22:53.749Z,81.38
2023-05-17T15:27:57.072Z,81.94
2023-05-17T15:33:00.174Z,81.99
2023-05-17T15:38:06.321Z,82.24
2023-05-17T15:43:09.299Z,82.13
2023-05-17T15:48:12.439Z,82.33
2023-05-17T15:53:15.722Z,82.18
2023-05-17T15:58:19.978Z,81.85
2023-05-17T16:03:22.964Z,81.99
2023-05-17T16:08:25.971Z,81.89
2023-05-17T16:13:29.103Z,82.29
2023-05-17T16:18:33.100Z,82.42
2023-05-17T16:23:36.297Z,82.42
2023-05-17T16:28:39.542Z,82.19
2023-05-17T16:33:42.730Z,82.29
2023-05-17T16:38:45.765Z,82.03
2023-05-17T16:43:48.851Z,81.94
2023-05-17T16:48:55.632Z,81.79
2023-05-17T16:53:58.677Z,81.34
2023-05-17T16:59:01.705Z,80.87
2023-05-17T17:04:04.764Z,80.69
2023-05-17T17:09:12.063Z,80.31
2023-05-17T17:14:15.187Z,80.24
2023-05-17T17:19:18.413Z,80.09
2023-05-17T17:24:21.511Z,79.75
2023-05-17T17:29:24.490Z,79.42
2023-05-17T17:34:27.647Z,78.71
2023-05-17T17:39:30.940Z,77.59
2023-05-17T17:44:33.916Z,77.37
2023-05-17T17:49:37.238Z,76.76
2023-05-17T17:54:40.186Z,77.10
2023-05-17T17:59:43.158Z,77.36
2023-05-17T18:04:46.189Z,77.88
2023-05-17T18:09:49.276Z,78.53
2023-05-17T18:14:52.267Z,79.16
2023-05-17T18:19:55.232Z,79.35
2023-05-17T18:24:58.491Z,80.05
2023-05-17T18:30:01.575Z,80.44
2023-05-17T18:35:05.244Z,80.43
2023-05-17T18:40:08.937Z,80.48
2023-05-17T18:45:12.084Z,80.48
2023-05-17T18:50:15.060Z,80.39
2023-05-17T18:55:18.033Z,80.54
2023-05-17T19:00:21.273Z,80.22
2023-05-17T19:05:24.366Z,79.69
2023-05-17T19:10:27.519Z,79.82
2023-05-17T19:15:31.165Z,80.05
2023-05-17T19:20:34.670Z,80.16
2023-05-17T19:25:37.626Z,80.42
2023-05-17T19:30:42.370Z,80.46
2023-05-17T19:35:45.434Z,80.55
2023-05-17T19:40:51.433Z,80.58
2023-05-17T19:45:54.421Z,80.79
2023-05-17T19:50:57.414Z,80.67
2023-05-17T19:56:05.843Z,80.42
2023-05-17T20:01:08.911Z,80.48
2023-05-17T20:06:14.452Z,80.46
2023-05-17T20:11:17.491Z,80.57
2023-05-17T20:16:20.676Z,80.71
2023-05-17T20:21:25.313Z,80.90
2023-05-17T20:26:31.961Z,81.22
2023-05-17T20:31:36.803Z,81.18
2023-05-17T20:36:39.892Z,80.95
2023-05-17T20:41:42.862Z,81.06
2023-05-17T20:46:46.725Z,81.42
2023-05-17T20:51:49.751Z,81.37
2023-05-17T20:56:52.709Z,81.25
2023-05-17T21:01:56.216Z,81.41
2023-05-17T21:06:59.482Z,81.00
2023-05-17T21:12:02.481Z,80.74
2023-05-17T21:17:05.636Z,80.67
2023-05-17T21:22:08.610Z,80.45
2023-05-17T21:27:11.567Z,80.27
2023-05-17T21:32:14.569Z,80.41
2023-05-17T21:37:17.584Z,80.19
2023-05-17T21:42:21.445Z,80.00
2023-05-17T21:47:24.682Z,80.05
2023-05-17T21:52:27.881Z,80.25
2023-05-17T21:57:30.837Z,79.67
2023-05-17T22:02:35.387Z,79.44
2023-05-17T22:07:38.678Z,79.66
2023-05-17T22:12:42.100Z,79.75
2023-05-17T22:17:51.670Z,79.90
2023-05-17T22:22:55.895Z,79.75
2023-05-17T22:27:58.916Z,79.84
2023-05-17T22:33:03.121Z,79.72
2023-05-17T22:38:06.369Z,79.84
2023-05-17T22:43:10.815Z,79.60
2023-05-17T22:48:14.572Z,79.33
2023-05-17T22:53:18.719Z,78.87
2023-05-17T22:58:25.930Z,78.10
2023-05-17T23:03:29.329Z,77.26
2023-05-17T23:08:32.813Z,77.11
2023-05-17T23:13:36.520Z,75.96
2023-05-17T23:18:40.814Z,75.41
2023-05-17T23:23:43.904Z,74.83
2023-05-17T23:28:47.088Z,75.05
2023-05-17T23:33:50.472Z,74.92
2023-05-17T23:38:53.430Z,75.19
2023-05-17T23:43:57.303Z,76.02
2023-05-17T23:49:02.318Z,76.44
2023-05-17T23:54:05.857Z,76.32
2023-05-17T23:59:08.844Z,76.32
